Terminal Aerodrome Forecast
Issued by NWS

Home | Current Version | Previous Version | Text Only | Print | Product List | Glossary On
Versions: 1 2 3 4 5 6 7 8 9 10 11 12 13 14 15 16 17 18
000
FTUS43 KMPX 290000 CCA
TAFAXN
TAF COR
KAXN 290020Z 2900/2924 13008KT 5SM -SHRA BR SCT005 OVC018
      TEMPO 2900/2902 OVC005
     FM290200 13007KT 5SM -SHRA BR OVC005
     FM290600 16004KT 3SM -DZ BR OVC003
     FM291600 22005KT P6SM BKN007 OVC025
     FM291900 27006KT P6SM SCT025 OVC120=

USA.gov is the U.S. government's official web portal to all federal, state and local government web resources and services.